Terminal Aerodrome Forecast
Issued by NWS

Home | Current Version | Previous Version | Graphics & Text | Print | Product List | Glossary On
Versions: 1 2 3 4 5 6 7 8 9 10 11 12 13 14 15 16 17 18 19 20 21
000
FTUS43 KGRB 172026 AAA
TAFRHI
TAF AMD
KRHI 172026Z 1720/1818 19008G15KT 2SM -RA BR OVC010
      TEMPO 1720/1723 5SM -RA BR SCT010 OVC020
     FM172300 19005KT 2SM -RA BR OVC004
     FM180200 28003KT 3SM -RASN BR OVC004
     FM180500 35004KT 5SM -FZDZSN BR OVC006
     FM181100 35007KT 6SM -FZDZSN BR OVC008
     FM181400 34009KT P6SM OVC012=

USA.gov is the U.S. government's official web portal to all federal, state and local government web resources and services.